Time;durP1;ratioP1;P1;durP2;ratioP2;P2;SDS_P1;SDS_P2;PMS_P1;PMS_P2;Temp;Humidity;BMP_temperature;BMP_pressure;BME280_temperature;BME280_humidity;BME280_pressure;Samples;Min_cycle;Max_cycle;Signal;HPM_P1;HPM_P2
2022/12/10 00:01:34;;;;;;;57.72;29.13;;;;;;;0.87;77.18;100924.94;5064533;28;20020;-48
2022/12/10 00:03:59;;;;;;;56.10;29.23;;;;;;;0.88;77.22;100923.28;5062142;28;20044;-47
2022/12/10 00:06:28;;;;;;;55.28;28.60;;;;;;;0.87;77.14;100924.94;5061469;28;20033;-46
2022/12/10 00:08:54;;;;;;;56.83;28.45;;;;;;;0.85;77.21;100920.53;5062590;28;20048;-46
2022/12/10 00:11:21;;;;;;;54.33;27.13;;;;;;;0.79;77.65;100921.03;5064719;28;20036;-47
2022/12/10 00:13:47;;;;;;;50.70;27.52;;;;;;;0.77;77.80;100914.97;5063622;28;20057;-47
2022/12/10 00:16:14;;;;;;;52.95;27.58;;;;;;;0.76;77.94;100920.81;5060258;28;20224;-44
2022/12/10 00:18:40;;;;;;;54.35;28.58;;;;;;;0.71;78.21;100917.09;5064367;28;20028;-45
2022/12/10 00:21:09;;;;;;;51.65;27.75;;;;;;;0.77;78.37;100928.50;5062351;28;20499;-45
2022/12/10 00:23:35;;;;;;;47.33;26.80;;;;;;;0.83;78.28;100925.50;5063019;28;20081;-46
2022/12/10 00:26:08;;;;;;;50.08;26.65;;;;;;;0.85;78.45;100931.56;5062506;28;20756;-44
2022/12/10 00:28:34;;;;;;;46.92;25.15;;;;;;;0.85;78.31;100939.16;5062157;28;20476;-47
2022/12/10 00:31:14;;;;;;;51.92;27.02;;;;;;;0.87;78.68;100927.47;5063493;28;20032;-46
2022/12/10 00:33:41;;;;;;;51.50;25.60;;;;;;;0.81;78.32;100929.59;5061939;28;20111;-48
2022/12/10 00:36:09;;;;;;;48.80;25.73;;;;;;;0.83;78.63;100932.22;5063232;28;20036;-47
2022/12/10 00:38:36;;;;;;;49.75;25.83;;;;;;;0.80;78.73;100928.72;5061028;28;20089;-48
2022/12/10 00:41:02;;;;;;;49.33;25.55;;;;;;;0.86;78.74;100929.91;5062955;28;20473;-47
2022/12/10 00:43:27;;;;;;;52.88;25.58;;;;;;;0.85;78.28;100926.50;5061393;28;20031;-44
2022/12/10 00:45:53;;;;;;;53.10;26.55;;;;;;;0.85;78.45;100931.56;5061731;28;20067;-47
2022/12/10 00:48:19;;;;;;;49.42;26.02;;;;;;;0.87;78.65;100926.59;5062456;28;20081;-46
2022/12/10 00:50:55;;;;;;;51.97;26.20;;;;;;;0.89;78.22;100922.50;5062522;28;20040;-45
2022/12/10 00:53:20;;;;;;;51.13;26.30;;;;;;;0.77;78.48;100927.63;5061337;28;20532;-46
2022/12/10 00:55:45;;;;;;;51.92;26.25;;;;;;;0.75;78.74;100921.59;5061998;28;20154;-45
2022/12/10 00:58:11;;;;;;;50.25;25.42;;;;;;;0.74;78.64;100915.66;5060070;28;20090;-44
2022/12/10 01:00:36;;;;;;;54.30;25.85;;;;;;;0.77;78.78;100913.31;5060739;28;20071;-47
2022/12/10 01:03:01;;;;;;;52.25;25.80;;;;;;;0.80;78.40;100907.59;5062507;28;20068;-43
2022/12/10 01:05:27;;;;;;;48.70;25.70;;;;;;;0.77;78.47;100899.78;5062018;28;20093;-47
2022/12/10 01:07:53;;;;;;;48.92;25.77;;;;;;;0.77;78.28;100908.25;5061851;28;20062;-46
2022/12/10 01:10:18;;;;;;;51.78;25.88;;;;;;;0.78;78.21;100915.06;5060723;28;20040;-44
2022/12/10 01:12:45;;;;;;;55.53;27.38;;;;;;;0.77;78.43;100908.25;5062627;28;20043;-44
2022/12/10 01:15:11;;;;;;;54.00;26.70;;;;;;;0.75;77.86;100924.13;5061558;28;20070;-47
2022/12/10 01:17:36;;;;;;;55.17;25.70;;;;;;;0.77;78.20;100920.03;5061155;28;20059;-44
2022/12/10 01:20:02;;;;;;;50.78;25.83;;;;;;;0.78;78.38;100926.84;5060849;28;20032;-45
2022/12/10 01:22:27;;;;;;;51.88;27.17;;;;;;;0.79;78.35;100926.97;5062228;28;20020;-45
2022/12/10 01:24:52;;;;;;;49.58;26.45;;;;;;;0.74;78.46;100929.97;5063552;28;20122;-45
2022/12/10 01:27:18;;;;;;;51.45;26.65;;;;;;;0.75;78.20;100924.13;5061050;28;20140;-47
2022/12/10 01:29:43;;;;;;;51.78;26.08;;;;;;;0.69;78.65;100926.25;5062086;28;20089;-44
2022/12/10 01:32:08;;;;;;;51.80;26.58;;;;;;;0.64;78.40;100917.44;5057060;28;20115;-47
2022/12/10 01:34:34;;;;;;;53.50;26.63;;;;;;;0.66;78.82;100916.75;5061699;28;20115;-45
2022/12/10 01:36:59;;;;;;;49.03;25.65;;;;;;;0.69;78.57;100916.13;5062296;28;20050;-50
2022/12/10 01:39:24;;;;;;;57.90;28.20;;;;;;;0.65;78.82;100916.66;5062343;28;20049;-49
2022/12/10 01:41:53;;;;;;;50.17;26.63;;;;;;;0.67;78.91;100922.72;5058602;28;20052;-44
2022/12/10 01:44:19;;;;;;;54.85;27.85;;;;;;;0.62;78.90;100924.94;5058894;28;20453;-45
2022/12/10 01:46:46;;;;;;;54.30;27.95;;;;;;;0.62;79.29;100926.59;5058775;28;20051;-47
2022/12/10 01:49:31;;;;;;;48.33;26.40;;;;;;;0.65;79.30;100926.78;5061629;28;20076;-46
2022/12/10 01:51:56;;;;;;;55.80;27.20;;;;;;;0.60;79.25;100926.47;5058147;28;20582;-47
2022/12/10 01:54:30;;;;;;;56.42;27.50;;;;;;;0.59;79.45;100936.50;5060944;28;20036;-44
2022/12/10 01:57:04;;;;;;;58.42;27.90;;;;;;;0.62;79.63;100931.66;5059530;28;21027;-47
2022/12/10 01:59:31;;;;;;;56.25;27.30;;;;;;;0.57;79.71;100922.88;5060492;28;20033;-45
2022/12/10 02:02:07;;;;;;;56.85;28.50;;;;;;;0.64;80.15;100930.97;5061161;28;20021;-45
2022/12/10 02:05:01;;;;;;;53.53;27.20;;;;;;;0.67;80.22;100930.31;5062512;28;20430;-46
2022/12/10 02:07:39;;;;;;;53.25;26.85;;;;;;;0.62;79.98;100935.06;5059188;28;20035;-44
2022/12/10 02:10:07;;;;;;;53.90;28.60;;;;;;;0.59;80.22;100934.84;5060514;28;20099;-44
2022/12/10 02:12:36;;;;;;;55.72;29.10;;;;;;;0.64;80.29;100933.50;5062121;28;20064;-48
2022/12/10 02:15:10;;;;;;;52.97;27.95;;;;;;;0.63;80.21;100939.34;5063119;28;20024;-45
2022/12/10 02:18:00;;;;;;;57.85;28.60;;;;;;;0.67;80.26;100941.31;5065049;28;20024;-47
2022/12/10 02:20:32;;;;;;;59.40;29.25;;;;;;;0.64;80.55;100936.03;5061539;28;20747;-47
2022/12/10 02:23:03;;;;;;;52.05;26.98;;;;;;;0.65;80.66;100934.38;5064519;28;20373;-47
2022/12/10 02:25:58;;;;;;;54.88;28.05;;;;;;;0.70;80.38;100936.47;5063843;28;20457;-45
2022/12/10 02:28:32;;;;;;;56.58;27.80;;;;;;;0.63;80.02;100935.94;5064370;28;20119;-45
2022/12/10 02:31:00;;;;;;;53.38;27.83;;;;;;;0.62;80.35;100934.19;5062262;28;20056;-45
2022/12/10 02:33:28;;;;;;;55.38;28.00;;;;;;;0.62;80.06;100944.31;5064781;28;20033;-46
2022/12/10 02:35:55;;;;;;;53.50;26.95;;;;;;;0.56;80.17;100937.19;5064444;28;20029;-46
2022/12/10 02:38:27;;;;;;;53.92;27.65;;;;;;;0.55;80.21;100932.91;5065729;28;20028;-44
2022/12/10 02:40:59;;;;;;;54.00;26.98;;;;;;;0.53;80.06;100934.41;5063951;28;20081;-45
2022/12/10 02:43:28;;;;;;;53.75;27.00;;;;;;;0.51;80.26;100934.31;5065876;28;20032;-46
2022/12/10 02:45:56;;;;;;;57.17;26.95;;;;;;;0.48;80.42;100941.69;5064325;28;20510;-44
2022/12/10 02:48:22;;;;;;;51.60;26.30;;;;;;;0.44;80.26;100942.25;5064324;28;20508;-45
2022/12/10 02:50:47;;;;;;;53.90;26.70;;;;;;;0.45;80.33;100951.59;5065281;28;20028;-45
2022/12/10 02:53:13;;;;;;;51.60;24.83;;;;;;;0.41;80.29;100946.22;5065437;28;20074;-47
2022/12/10 02:56:06;;;;;;;54.30;26.83;;;;;;;0.45;80.69;100946.53;5063495;28;20063;-44
2022/12/10 02:58:34;;;;;;;52.03;26.48;;;;;;;0.38;80.64;100944.38;5064063;28;20020;-46
2022/12/10 03:01:19;;;;;;;53.05;27.10;;;;;;;0.43;80.84;100947.22;5062648;28;20529;-51
2022/12/10 03:03:52;;;;;;;51.83;26.38;;;;;;;0.39;81.16;100946.13;5064495;28;20036;-45
2022/12/10 03:06:29;;;;;;;53.55;26.40;;;;;;;0.41;81.25;100951.28;5063089;28;20062;-46
2022/12/10 03:08:59;;;;;;;53.13;27.08;;;;;;;0.37;81.27;100950.19;5064939;28;20078;-43
2022/12/10 03:11:25;;;;;;;57.53;27.77;;;;;;;0.35;81.08;100951.72;5062032;28;20544;-46
2022/12/10 03:14:02;;;;;;;54.45;27.10;;;;;;;0.36;81.19;100953.47;5065116;28;20107;-48
2022/12/10 03:16:38;;;;;;;52.90;27.27;;;;;;;0.38;81.63;100946.03;5063069;28;20398;-47
2022/12/10 03:19:10;;;;;;;54.22;27.60;;;;;;;0.37;81.67;100947.66;5063217;28;20029;-47
2022/12/10 03:21:37;;;;;;;57.17;28.45;;;;;;;0.35;81.67;100943.25;5061947;28;20028;-45
2022/12/10 03:24:03;;;;;;;58.40;28.40;;;;;;;0.34;82.10;100946.56;5061974;28;20461;-43
2022/12/10 03:26:29;;;;;;;60.88;29.15;;;;;;;0.40;82.09;100947.00;5061866;28;20054;-46
2022/12/10 03:29:06;;;;;;;60.53;29.48;;;;;;;0.43;82.17;100935.44;5064138;28;20443;-47
2022/12/10 03:31:33;;;;;;;60.63;29.63;;;;;;;0.43;81.89;100940.50;5063435;28;20667;-46
2022/12/10 03:34:00;;;;;;;60.55;29.63;;;;;;;0.36;81.80;100939.94;5063156;28;20497;-45
2022/12/10 03:36:27;;;;;;;61.60;30.45;;;;;;;0.35;82.04;100930.63;5062970;28;20059;-43
2022/12/10 03:38:53;;;;;;;61.55;30.05;;;;;;;0.35;82.30;100936.53;5063795;28;20093;-46
2022/12/10 03:41:18;;;;;;;64.43;30.85;;;;;;;0.40;82.18;100940.28;5063459;28;20033;-45
2022/12/10 03:43:58;;;;;;;64.05;30.33;;;;;;;0.45;82.36;100945.66;5062585;28;20066;-44
2022/12/10 03:46:26;;;;;;;62.63;29.95;;;;;;;0.41;82.43;100946.22;5061346;28;20102;-45
2022/12/10 03:48:52;;;;;;;67.28;30.85;;;;;;;0.41;82.53;100957.22;5060323;28;20024;-45
2022/12/10 03:51:18;;;;;;;63.78;29.63;;;;;;;0.42;82.45;100948.84;5064214;28;20388;-48
2022/12/10 03:53:44;;;;;;;63.83;30.55;;;;;;;0.42;82.35;100947.97;5062743;28;20040;-45
2022/12/10 03:56:09;;;;;;;68.50;31.95;;;;;;;0.36;82.52;100953.47;5062673;28;20031;-45
2022/12/10 03:58:35;;;;;;;65.93;31.10;;;;;;;0.37;82.59;100954.38;5063398;28;20086;-45
2022/12/10 04:01:01;;;;;;;66.50;31.17;;;;;;;0.35;82.80;100951.72;5063660;28;20099;-44
2022/12/10 04:03:26;;;;;;;69.20;31.52;;;;;;;0.39;83.01;100953.72;5062984;28;20040;-46
2022/12/10 04:05:52;;;;;;;75.38;32.88;;;;;;;0.35;83.01;100955.91;5060945;28;20020;-46
2022/12/10 04:08:17;;;;;;;73.55;32.83;;;;;;;0.36;83.04;100953.47;5062564;28;20033;-44
2022/12/10 04:10:42;;;;;;;76.95;33.63;;;;;;;0.39;82.73;100960.41;5062842;28;20024;-45
2022/12/10 04:18:35;;;;;;;72.78;33.30;;;;;;;0.33;83.17;100955.81;5062439;28;20066;-46
2022/12/10 04:29:13;;;;;;;75.47;34.72;;;;;;;0.34;83.58;100960.09;5062114;28;20642;-46
2022/12/10 04:31:38;;;;;;;72.50;33.20;;;;;;;0.37;83.64;100962.84;5061973;28;20033;-46
2022/12/10 04:34:03;;;;;;;76.20;34.58;;;;;;;0.39;83.80;100960.41;5063866;28;20055;-47
2022/12/10 04:36:29;;;;;;;82.35;35.90;;;;;;;0.35;83.82;100964.38;5061255;28;20052;-44
2022/12/10 04:38:54;;;;;;;81.18;33.70;;;;;;;0.26;83.95;100963.75;5062835;28;20035;-45
2022/12/10 04:41:19;;;;;;;85.72;35.20;;;;;;;0.35;84.32;100961.84;5063202;28;20413;-44
2022/12/10 04:43:45;;;;;;;79.78;34.70;;;;;;;0.32;84.12;100966.69;5060043;28;20155;-44
2022/12/10 04:46:10;;;;;;;74.90;34.03;;;;;;;0.34;84.12;100972.75;5059489;28;20127;-46
2022/12/10 04:48:36;;;;;;;74.30;33.85;;;;;;;0.36;84.34;100968.66;5062467;28;20020;-46
2022/12/10 04:51:02;;;;;;;81.05;33.83;;;;;;;0.36;84.39;100972.84;5060872;28;20024;-46
2022/12/10 04:53:27;;;;;;;77.45;33.85;;;;;;;0.34;84.32;100965.16;5063136;28;20512;-47
2022/12/10 04:55:52;;;;;;;78.18;34.45;;;;;;;0.33;84.62;100970.97;5061495;28;20111;-45
2022/12/10 04:58:18;;;;;;;82.70;36.85;;;;;;;0.31;84.52;100976.72;5060443;28;20064;-45
2022/12/10 05:00:43;;;;;;;83.80;35.10;;;;;;;0.30;84.79;100978.34;5060707;28;20079;-46
2022/12/10 05:03:09;;;;;;;80.13;34.38;;;;;;;0.30;84.71;100975.81;5063267;28;20166;-47
2022/12/10 05:05:35;;;;;;;77.22;34.65;;;;;;;0.35;84.67;100971.09;5060414;28;20029;-45
2022/12/10 05:08:00;;;;;;;82.30;36.25;;;;;;;0.34;84.64;100970.22;5060134;28;20443;-47
2022/12/10 05:10:26;;;;;;;78.88;34.63;;;;;;;0.35;84.82;100969.44;5060525;28;20037;-44
2022/12/10 05:12:51;;;;;;;85.78;34.60;;;;;;;0.35;84.78;100971.09;5062234;28;20032;-47
2022/12/10 05:15:17;;;;;;;80.55;34.35;;;;;;;0.34;84.58;100974.38;5061632;28;20087;-47
2022/12/10 05:17:43;;;;;;;84.47;35.50;;;;;;;0.35;84.68;100976.13;5060963;28;20032;-44
2022/12/10 05:20:08;;;;;;;78.40;34.17;;;;;;;0.33;84.77;100972.63;5060278;28;20162;-46
2022/12/10 05:25:17;;;;;;;79.20;34.08;;;;;;;0.35;84.86;100977.03;5061235;28;20634;-47
2022/12/10 05:27:43;;;;;;;80.28;34.10;;;;;;;0.34;84.79;100980.31;5061814;28;20037;-47
2022/12/10 05:30:09;;;;;;;76.25;33.58;;;;;;;0.32;84.76;100975.94;5059387;28;20140;-44
2022/12/10 05:32:34;;;;;;;79.18;33.63;;;;;;;0.38;84.73;100971.31;5058342;28;20033;-43
2022/12/10 05:35:00;;;;;;;75.93;33.78;;;;;;;0.39;84.67;100973.94;5060421;28;20090;-46
2022/12/10 05:37:25;;;;;;;80.88;35.20;;;;;;;0.37;84.76;100975.50;5058855;28;20061;-44
2022/12/10 05:39:50;;;;;;;78.90;33.92;;;;;;;0.38;84.62;100978.91;5058381;28;20071;-46
2022/12/10 05:42:16;;;;;;;84.05;35.45;;;;;;;0.37;84.81;100977.16;5060968;28;20061;-45
2022/12/10 05:44:41;;;;;;;87.95;36.33;;;;;;;0.36;84.98;100970.31;5061900;28;20131;-45
2022/12/10 05:47:06;;;;;;;80.95;34.80;;;;;;;0.41;84.90;100972.38;5062080;28;20076;-47
2022/12/10 05:49:32;;;;;;;82.32;34.33;;;;;;;0.37;84.63;100975.50;5061916;28;20081;-43
2022/12/10 05:51:57;;;;;;;82.03;33.92;;;;;;;0.35;84.96;100976.13;5060923;28;20051;-45
2022/12/10 05:54:22;;;;;;;86.70;35.20;;;;;;;0.36;84.85;100983.81;5062568;28;20033;-43
2022/12/10 05:56:48;;;;;;;80.15;34.58;;;;;;;0.40;85.09;100983.28;5060703;28;20041;-44
2022/12/10 05:59:13;;;;;;;83.43;34.13;;;;;;;0.42;84.32;100984.25;5061390;28;20041;-45
2022/12/10 06:01:38;;;;;;;86.53;35.25;;;;;;;0.40;84.92;100979.88;5058851;28;20032;-43
2022/12/10 06:04:05;;;;;;;88.93;35.72;;;;;;;0.41;84.99;100987.56;5062533;28;20052;-45
2022/12/10 06:06:34;;;;;;;90.35;36.33;;;;;;;0.40;85.38;100980.75;5062354;28;20481;-43
2022/12/10 06:08:59;;;;;;;90.18;35.33;;;;;;;0.42;85.17;100980.84;5058968;28;20044;-44
2022/12/10 06:11:26;;;;;;;93.40;35.50;;;;;;;0.42;85.21;100989.31;5058424;28;20033;-46
2022/12/10 06:13:52;;;;;;;90.07;35.92;;;;;;;0.44;85.04;100991.97;5059967;28;20021;-44
2022/12/10 06:16:17;;;;;;;92.97;35.70;;;;;;;0.41;84.94;100982.50;5061335;28;20496;-43
2022/12/10 06:18:43;;;;;;;91.80;35.25;;;;;;;0.38;85.04;100974.72;5060521;28;20032;-46
2022/12/10 06:21:19;;;;;;;92.28;36.00;;;;;;;0.43;85.31;100978.47;5059212;28;20053;-47
2022/12/10 06:23:45;;;;;;;93.68;34.90;;;;;;;0.39;85.42;100984.06;5060045;28;20025;-46
2022/12/10 06:26:16;;;;;;;91.05;37.13;;;;;;;0.43;85.55;100987.69;5059537;28;20024;-47
2022/12/10 06:28:44;;;;;;;89.05;36.25;;;;;;;0.44;85.26;100991.97;5060089;28;20031;-47
2022/12/10 06:31:09;;;;;;;86.45;35.92;;;;;;;0.44;85.43;100989.44;5056659;28;20020;-45
2022/12/10 06:33:35;;;;;;;96.18;36.38;;;;;;;0.42;85.35;100999.44;5056054;28;20035;-45
2022/12/10 06:36:04;;;;;;;87.80;34.92;;;;;;;0.48;85.50;100996.47;5060110;28;20028;-46
2022/12/10 06:38:29;;;;;;;;;;;;;;;0.63;84.81;101004.25;5059301;28;20032;-45
2022/12/10 06:40:55;;;;;;;86.85;32.80;;;;;;;0.49;85.03;101001.66;5060722;28;20277;-44
2022/12/10 06:43:20;;;;;;;93.72;34.20;;;;;;;0.47;85.13;101007.34;5058153;28;20504;-43
2022/12/10 06:45:46;;;;;;;88.75;33.63;;;;;;;0.48;85.22;100999.88;5061435;28;20098;-48
2022/12/10 06:48:11;;;;;;;85.55;33.63;;;;;;;0.45;85.50;101009.78;5059357;28;20066;-44
2022/12/10 06:50:37;;;;;;;85.18;32.63;;;;;;;0.43;85.43;101013.88;5060708;28;20029;-45
2022/12/10 06:53:03;;;;;;;87.53;34.63;;;;;;;0.46;85.38;101009.00;5057580;28;20488;-43
2022/12/10 06:55:28;;;;;;;83.65;33.55;;;;;;;0.50;85.43;101013.53;5059010;28;20028;-44
2022/12/10 06:57:54;;;;;;;83.57;32.65;;;;;;;0.51;85.18;101014.41;5060226;28;20024;-48
2022/12/10 07:00:21;;;;;;;84.13;33.17;;;;;;;0.52;85.29;101004.38;5060276;28;20123;-47
2022/12/10 07:02:46;;;;;;;83.00;32.80;;;;;;;0.55;85.29;101008.81;5062798;28;20025;-47
2022/12/10 07:05:12;;;;;;;82.13;32.42;;;;;;;0.55;85.18;101008.81;5059483;28;20036;-46
2022/12/10 07:07:37;;;;;;;87.07;33.22;;;;;;;0.53;85.45;101018.78;5062188;28;20032;-47
2022/12/10 07:10:03;;;;;;;88.18;33.28;;;;;;;0.53;85.42;101013.72;5060891;28;20024;-47
2022/12/10 07:12:28;;;;;;;81.05;31.17;;;;;;;0.51;85.38;101017.81;5062784;28;20116;-48
2022/12/10 07:14:54;;;;;;;74.25;30.88;;;;;;;0.49;85.22;101021.91;5062751;28;20381;-45
2022/12/10 07:17:19;;;;;;;77.85;31.20;;;;;;;0.51;85.56;101025.41;5064396;28;20147;-44
2022/12/10 07:19:44;;;;;;;78.40;30.98;;;;;;;0.48;85.27;101026.81;5061594;28;20112;-45
2022/12/10 07:22:10;;;;;;;72.70;30.90;;;;;;;0.49;85.28;101018.50;5061833;28;20043;-47
2022/12/10 07:24:35;;;;;;;73.97;31.27;;;;;;;0.46;85.50;101019.13;5065268;28;20033;-44
2022/12/10 07:27:00;;;;;;;78.35;32.03;;;;;;;0.47;85.35;101027.59;5063212;28;20063;-45
2022/12/10 07:29:26;;;;;;;75.43;29.95;;;;;;;0.48;85.69;101031.88;5063678;28;20032;-45
2022/12/10 07:31:51;;;;;;;70.35;29.42;;;;;;;0.50;85.55;101035.41;5064767;28;20059;-44
2022/12/10 07:34:17;;;;;;;73.68;30.58;;;;;;;0.46;85.70;101043.56;5067413;28;20074;-47
2022/12/10 07:36:43;;;;;;;79.05;32.03;;;;;;;0.50;85.86;101041.34;5063921;28;20078;-45
2022/12/10 07:39:16;;;;;;;78.93;33.13;;;;;;;0.52;85.75;101036.41;5063559;28;20445;-46
2022/12/10 07:41:42;;;;;;;78.25;32.72;;;;;;;0.46;85.70;101036.84;5062323;28;20116;-45
2022/12/10 07:44:11;;;;;;;79.75;32.92;;;;;;;0.47;85.81;101041.13;5065670;28;20108;-49
2022/12/10 07:46:37;;;;;;;78.45;34.03;;;;;;;0.47;85.93;101043.66;5062691;28;20442;-44
2022/12/10 07:49:03;;;;;;;74.75;31.58;;;;;;;0.44;85.90;101052.69;5065266;28;20055;-45
2022/12/10 07:51:29;;;;;;;74.60;31.08;;;;;;;0.44;85.92;101047.63;5065148;28;20059;-45
2022/12/10 07:53:55;;;;;;;75.00;31.55;;;;;;;0.46;86.15;101041.91;5065364;28;20473;-43
2022/12/10 07:56:22;;;;;;;74.40;32.08;;;;;;;0.46;86.08;101052.03;5062438;28;20020;-43
2022/12/10 07:58:47;;;;;;;77.47;31.67;;;;;;;0.47;86.09;101057.97;5063757;28;20059;-47
2022/12/10 08:01:18;;;;;;;77.03;32.92;;;;;;;0.49;86.24;101064.91;5064559;28;20453;-43
2022/12/10 08:03:44;;;;;;;72.97;31.38;;;;;;;0.48;85.82;101064.78;5064109;28;20103;-44
2022/12/10 08:06:15;;;;;;;73.63;32.20;;;;;;;0.43;86.26;101066.13;5063704;28;20172;-44
2022/12/10 08:08:41;;;;;;;72.88;32.28;;;;;;;0.44;86.22;101070.41;5065500;28;20409;-45
2022/12/10 08:11:07;;;;;;;76.25;33.35;;;;;;;0.43;86.37;101074.59;5062832;28;20033;-43
2022/12/10 08:13:33;;;;;;;76.93;32.00;;;;;;;0.46;86.35;101069.72;5062333;28;20112;-43
2022/12/10 08:16:07;;;;;;;75.15;32.85;;;;;;;0.45;86.53;101073.03;5065541;28;20024;-47
2022/12/10 08:18:33;;;;;;;77.28;33.03;;;;;;;0.49;86.25;101081.75;5064785;28;20107;-47
2022/12/10 08:21:04;;;;;;;70.30;32.15;;;;;;;0.49;86.57;101087.69;5065133;28;20035;-44
2022/12/10 08:23:29;;;;;;;73.60;33.17;;;;;;;0.48;86.55;101079.94;5062568;28;20020;-44
2022/12/10 08:25:54;;;;;;;73.03;33.15;;;;;;;0.46;85.95;101084.03;5065653;28;20386;-47
2022/12/10 08:28:19;;;;;;;69.10;30.27;;;;;;;0.50;86.45;101084.38;5063113;28;20503;-46
2022/12/10 08:30:49;;;;;;;70.50;30.02;;;;;;;0.51;86.27;101085.25;5063333;28;22486;-46
2022/12/10 08:33:15;;;;;;;72.55;31.45;;;;;;;0.50;86.16;101093.63;5063102;28;20493;-46
2022/12/10 08:35:41;;;;;;;64.53;30.13;;;;;;;0.49;86.43;101089.31;5064077;28;20492;-45
2022/12/10 08:38:06;;;;;;;73.43;31.67;;;;;;;0.50;86.38;101097.03;5063797;28;20036;-49
2022/12/10 08:40:31;;;;;;;71.22;31.15;;;;;;;0.49;86.72;101096.91;5063814;28;20041;-44
2022/12/10 08:42:57;;;;;;;66.22;29.23;;;;;;;0.51;86.78;101102.97;5064480;28;20370;-46
2022/12/10 08:45:22;;;;;;;66.55;29.33;;;;;;;0.52;86.77;101104.72;5062669;28;20493;-47
2022/12/10 08:47:47;;;;;;;64.82;29.13;;;;;;;0.54;86.66;101103.16;5065045;28;20028;-49
2022/12/10 08:50:13;;;;;;;66.05;28.95;;;;;;;0.58;86.75;101102.63;5070332;28;20028;-44
2022/12/10 08:52:38;;;;;;;67.30;30.20;;;;;;;0.55;86.50;101102.41;5062399;28;20024;-48
2022/12/10 08:55:04;;;;;;;66.28;28.90;;;;;;;0.56;86.64;101100.75;5060921;28;20032;-46
2022/12/10 08:57:29;;;;;;;65.03;28.30;;;;;;;0.57;86.75;101100.00;5059709;28;20052;-45
2022/12/10 08:59:55;;;;;;;67.80;31.25;;;;;;;0.57;86.49;101098.34;5059551;28;20040;-49
2022/12/10 09:02:20;;;;;;;78.00;31.15;;;;;;;0.59;86.81;101103.50;5066720;28;20029;-44
2022/12/10 09:04:46;;;;;;;68.22;29.33;;;;;;;0.60;86.71;101112.84;5069487;28;20036;-47
2022/12/10 09:07:12;;;;;;;67.97;30.50;;;;;;;0.60;86.73;101113.72;5067371;28;20032;-46
2022/12/10 09:09:37;;;;;;;63.22;29.35;;;;;;;0.63;86.85;101110.56;5068988;28;20053;-45
2022/12/10 09:12:03;;;;;;;61.17;29.05;;;;;;;0.59;86.61;101114.50;5066248;28;20028;-43
2022/12/10 09:14:28;;;;;;;60.25;28.13;;;;;;;0.57;86.60;101112.66;5065974;28;20056;-44
2022/12/10 09:16:54;;;;;;;60.28;28.02;;;;;;;0.56;86.72;101113.41;5064404;28;20024;-45
2022/12/10 09:19:19;;;;;;;60.00;27.75;;;;;;;0.53;86.82;101112.41;5064947;28;20035;-47
2022/12/10 09:21:46;;;;;;;59.67;27.20;;;;;;;0.54;86.66;101116.69;5062071;28;20025;-47
2022/12/10 09:24:12;;;;;;;59.58;26.88;;;;;;;0.58;86.95;101120.34;5064656;28;20024;-44
2022/12/10 09:26:38;;;;;;;56.85;26.67;;;;;;;0.57;86.83;101126.16;5067093;28;20024;-47
2022/12/10 09:29:03;;;;;;;54.22;25.75;;;;;;;0.59;86.88;101132.22;5065554;28;20040;-44
2022/12/10 09:31:28;;;;;;;54.13;25.38;;;;;;;0.63;87.24;101128.25;5065478;28;20104;-45
2022/12/10 09:33:54;;;;;;;60.97;25.80;;;;;;;0.61;87.02;101124.72;5064788;28;20444;-48
2022/12/10 09:36:20;;;;;;;58.85;26.38;;;;;;;0.65;87.09;101126.72;5066517;28;20016;-45
2022/12/10 09:38:47;;;;;;;59.10;26.02;;;;;;;0.63;87.32;101131.66;5068416;28;20034;-44
2022/12/10 09:41:33;;;;;;;59.45;27.00;;;;;;;0.69;87.30;101137.19;5065289;28;20025;-43
2022/12/10 09:44:10;;;;;;;59.35;26.42;;;;;;;0.67;87.35;101140.38;5065185;28;20369;-47
2022/12/10 09:46:50;;;;;;;53.78;25.23;;;;;;;0.70;87.25;101138.06;5064278;28;20051;-44
2022/12/10 09:49:34;;;;;;;58.63;25.17;;;;;;;0.76;87.24;101138.50;5066285;28;20097;-46
2022/12/10 09:52:02;;;;;;;56.50;24.58;;;;;;;0.72;86.81;101137.38;5066394;28;20390;-48
2022/12/10 09:54:39;;;;;;;59.58;27.15;;;;;;;0.75;86.96;101136.72;5062702;28;20032;-44
2022/12/10 09:57:10;;;;;;;55.53;26.33;;;;;;;0.71;87.14;101140.69;5067311;28;20055;-47
2022/12/10 09:59:42;;;;;;;57.25;27.33;;;;;;;0.72;87.23;101146.63;5064671;28;20118;-45
2022/12/10 10:02:43;;;;;;;59.38;26.92;;;;;;;0.81;87.23;101144.75;5065385;28;20025;-46
2022/12/10 10:05:08;;;;;;;58.60;26.63;;;;;;;0.71;87.01;101147.41;5025300;28;20038;-47
2022/12/10 10:07:38;;;;;;;56.15;26.27;;;;;;;0.70;87.27;101151.59;5058925;28;20044;-46
2022/12/10 10:10:16;;;;;;;58.17;25.80;;;;;;;0.68;87.38;101152.25;5063470;28;20091;-45
2022/12/10 10:12:42;;;;;;;59.35;26.10;;;;;;;0.69;87.38;101154.00;5062496;28;20040;-44
2022/12/10 10:15:16;;;;;;;58.97;25.98;;;;;;;0.72;87.37;101167.75;5067866;28;20032;-45
2022/12/10 10:17:45;;;;;;;58.72;26.58;;;;;;;0.68;87.48;101163.25;5064921;28;20054;-48
2022/12/10 10:20:12;;;;;;;54.67;24.83;;;;;;;0.74;87.42;101160.28;5062316;28;20025;-45
2022/12/10 10:22:38;;;;;;;62.97;26.45;;;;;;;0.73;87.38;101166.13;5064034;28;20074;-46
2022/12/10 10:25:05;;;;;;;53.67;24.80;;;;;;;0.75;87.38;101173.03;5064092;28;22232;-44
2022/12/10 10:27:34;;;;;;;64.18;26.92;;;;;;;0.76;87.19;101166.34;5064183;28;20039;-45
2022/12/10 10:30:02;;;;;;;65.38;25.65;;;;;;;0.75;87.30;101152.81;5061493;28;20070;-44
2022/12/10 10:32:36;;;;;;;55.95;25.48;;;;;;;0.81;87.58;101154.88;5063633;28;20025;-46
2022/12/10 10:35:04;;;;;;;59.25;25.52;;;;;;;0.77;87.54;101155.44;5062401;28;20039;-45
2022/12/10 10:37:35;;;;;;;49.67;23.92;;;;;;;0.80;87.69;101159.06;5069874;28;20457;-46
2022/12/10 10:40:01;;;;;;;53.60;24.38;;;;;;;0.76;87.18;101157.09;5066852;28;20028;-44
2022/12/10 10:42:42;;;;;;;52.40;23.92;;;;;;;0.84;87.39;101157.63;5066293;28;20040;-47
2022/12/10 10:45:38;;;;;;;54.30;24.25;;;;;;;0.87;87.50;101156.97;5065408;28;20035;-46
2022/12/10 10:48:05;;;;;;;58.13;25.17;;;;;;;0.80;87.05;101155.66;5061965;28;20028;-45
2022/12/10 10:50:37;;;;;;;55.53;24.77;;;;;;;0.81;87.31;101149.81;5070219;28;20078;-48
2022/12/10 10:53:19;;;;;;;57.20;25.33;;;;;;;0.87;87.54;101146.84;5071451;28;20484;-47
2022/12/10 10:55:45;;;;;;;53.72;24.08;;;;;;;0.81;86.89;101147.28;5067575;28;20420;-46
2022/12/10 10:58:18;;;;;;;52.88;23.65;;;;;;;0.82;87.24;101146.53;5070260;28;20044;-47
2022/12/10 11:01:12;;;;;;;48.42;22.50;;;;;;;0.83;87.14;101150.81;5067557;28;20448;-46
2022/12/10 11:03:47;;;;;;;50.40;21.63;;;;;;;0.83;87.05;101142.34;5071274;28;20037;-47
2022/12/10 11:06:12;;;;;;;45.15;21.45;;;;;;;0.78;87.06;101142.00;5067066;28;20427;-44
2022/12/10 11:08:39;;;;;;;47.72;22.25;;;;;;;0.74;86.83;101133.31;5072123;28;20032;-46
2022/12/10 11:11:11;;;;;;;49.08;22.52;;;;;;;0.79;86.96;101133.66;5069544;28;20083;-44
2022/12/10 11:13:38;;;;;;;49.05;22.67;;;;;;;0.81;87.38;101139.69;5066219;28;20687;-48
2022/12/10 11:16:12;;;;;;;49.40;23.20;;;;;;;0.85;87.43;101138.25;5070536;28;20079;-45
2022/12/10 11:18:43;;;;;;;51.40;22.65;;;;;;;0.83;86.83;101140.69;5069019;28;20031;-47
2022/12/10 11:21:11;;;;;;;46.65;21.30;;;;;;;0.83;87.07;101143.22;5071113;28;20027;-45
2022/12/10 11:23:42;;;;;;;49.90;21.42;;;;;;;0.85;87.43;101144.22;5063019;28;20366;-44
2022/12/10 11:26:29;;;;;;;50.17;22.55;;;;;;;0.89;87.12;101138.59;5065541;28;20054;-46
2022/12/10 11:28:54;;;;;;;46.90;22.25;;;;;;;0.83;87.31;101135.63;5064528;28;20052;-48
2022/12/10 11:31:42;;;;;;;49.92;22.90;;;;;;;0.89;87.46;101135.19;5067937;28;20055;-45
2022/12/10 11:34:23;;;;;;;48.03;22.42;;;;;;;0.88;87.43;101131.75;5066735;28;20025;-47
2022/12/10 11:37:12;;;;;;;52.25;23.05;;;;;;;0.94;87.17;101133.84;5068161;28;20017;-45
2022/12/10 11:39:55;;;;;;;54.17;23.92;;;;;;;0.92;87.47;101130.34;5066121;28;20551;-44